createdAt,value
2019-02-18T00:03:07.854Z,74.59
2019-02-18T00:08:07.616Z,74.91
2019-02-18T00:13:07.780Z,75.04
2019-02-18T00:17:07.064Z,75.33
2019-02-18T00:22:07.224Z,75.75
2019-02-18T00:27:06.992Z,76.45
2019-02-18T00:32:06.696Z,76.91
2019-02-18T00:37:07.529Z,76.37
2019-02-18T00:42:06.862Z,75.91
2019-02-18T00:47:06.917Z,75.9
2019-02-18T00:52:06.749Z,75.9
2019-02-18T00:56:07.642Z,76.55
2019-02-18T01:01:06.786Z,76.61
2019-02-18T01:06:07.636Z,76.53
2019-02-18T01:11:06.864Z,76.74
2019-02-18T01:16:07.364Z,76.66
2019-02-18T01:21:07.245Z,76.57
2019-02-18T01:26:06.911Z,76.78
2019-02-18T01:30:08.390Z,76.63
2019-02-18T01:35:07.795Z,77.21
2019-02-18T01:40:06.953Z,77.39
2019-02-18T01:45:08.695Z,77.89
2019-02-18T01:50:06.941Z,77.9
2019-02-18T01:55:06.809Z,78.11
2019-02-18T02:00:09.471Z,78.27
2019-02-18T02:05:10.275Z,78.59
2019-02-18T02:09:09.466Z,79.35
2019-02-18T02:14:08.665Z,79.63
2019-02-18T02:19:07.135Z,80.74
2019-02-18T02:24:06.927Z,81.37
2019-02-18T02:29:07.709Z,81.73
2019-02-18T02:34:07.379Z,82.37
2019-02-18T02:39:07.492Z,83.47
2019-02-18T02:43:07.734Z,84.72
2019-02-18T02:48:07.851Z,84.09
2019-02-18T02:53:07.667Z,84.95
2019-02-18T02:58:07.456Z,84.52
2019-02-18T03:03:07.475Z,84.65
2019-02-18T03:08:06.823Z,85.11
2019-02-18T03:13:07.033Z,85.01
2019-02-18T03:18:06.796Z,85.39
2019-02-18T03:22:07.627Z,85.64
2019-02-18T03:27:07.469Z,85.9
2019-02-18T03:32:07.379Z,86.17
2019-02-18T03:37:06.902Z,85.66
2019-02-18T03:42:07.143Z,84.66
2019-02-18T03:47:07.665Z,84.49
2019-02-18T03:52:07.484Z,84.97
2019-02-18T03:57:07.366Z,84.92
2019-02-18T04:01:07.470Z,85.85
2019-02-18T04:06:07.490Z,84.18
2019-02-18T04:11:06.899Z,85.56
2019-02-18T04:16:07.673Z,85.49
2019-02-18T04:21:07.507Z,84.76
2019-02-18T04:26:07.315Z,84.16
2019-02-18T04:31:06.545Z,84.03
2019-02-18T04:35:07.338Z,84.93
2019-02-18T04:40:07.056Z,85.01
2019-02-18T04:45:08.956Z,85.82
2019-02-18T04:50:07.519Z,84.56
2019-02-18T04:55:07.704Z,84.06
2019-02-18T05:00:09.626Z,85.27
2019-02-18T05:05:06.790Z,89.89
2019-02-18T05:09:07.201Z,90.7
2019-02-18T05:14:07.361Z,92.95
2019-02-18T05:19:06.825Z,92.75
2019-02-18T05:24:07.123Z,92.27
2019-02-18T05:29:07.372Z,92.97
2019-02-18T05:34:06.926Z,92.81
2019-02-18T05:39:19.110Z,92.39
2019-02-18T05:43:07.113Z,92.36
2019-02-18T05:48:07.222Z,92.28
2019-02-18T05:53:06.981Z,93.01
2019-02-18T05:58:06.728Z,93.25
2019-02-18T06:03:07.199Z,93.28
2019-02-18T06:08:08.052Z,93.4
2019-02-18T06:13:07.340Z,94.73
2019-02-18T06:18:07.974Z,94.95
2019-02-18T06:22:07.489Z,94.81
2019-02-18T06:27:07.322Z,94.77
2019-02-18T06:32:07.176Z,94.54
2019-02-18T06:37:07.931Z,94.37
2019-02-18T06:42:07.191Z,94.41
2019-02-18T06:47:07.781Z,94.24
2019-02-18T06:52:07.647Z,94.37
2019-02-18T06:57:07.451Z,94.48
2019-02-18T07:01:07.637Z,94.48
2019-02-18T07:06:07.486Z,95.11
2019-02-18T07:11:07.899Z,95.07
2019-02-18T07:16:07.718Z,93.86
2019-02-18T07:21:09.129Z,88.1
2019-02-18T07:26:07.571Z,83.86
2019-02-18T07:31:07.412Z,79.51
2019-02-18T07:36:06.813Z,76.89
2019-02-18T07:41:07.175Z,74.33
2019-02-18T07:45:08.855Z,72.27
2019-02-18T07:50:06.967Z,71.99
2019-02-18T07:55:07.961Z,71.63
2019-02-18T08:00:09.620Z,69.34
2019-02-18T08:05:06.862Z,63.88
2019-02-18T08:10:13.063Z,64.51
2019-02-18T08:15:08.183Z,64.69
2019-02-18T08:19:07.582Z,65.39
2019-02-18T08:24:07.674Z,64.41
2019-02-18T08:29:07.257Z,61.52
2019-02-18T08:34:07.722Z,58.59
2019-02-18T08:39:07.770Z,55.48
2019-02-18T08:44:07.581Z,56.52
2019-02-18T08:49:07.803Z,57.79
2019-02-18T08:54:07.670Z,56.51
2019-02-18T08:59:07.123Z,56.3
2019-02-18T09:03:07.353Z,55.72
2019-02-18T09:08:07.967Z,56.13
2019-02-18T09:13:07.960Z,54.97
2019-02-18T09:18:07.404Z,54.47
2019-02-18T09:23:07.128Z,53.28
2019-02-18T09:28:07.816Z,51.98
2019-02-18T09:33:07.370Z,51.63
2019-02-18T09:37:07.012Z,51.66
2019-02-18T09:42:07.890Z,50.14
2019-02-18T09:43:07.316Z,50.14
2019-02-18T09:47:07.601Z,47.51
2019-02-18T09:52:07.266Z,48.45
2019-02-18T09:57:06.848Z,49.21
2019-02-18T10:02:07.994Z,49.27
2019-02-18T10:07:07.633Z,49.56
2019-02-18T10:12:19.230Z,50.25
2019-02-18T10:16:06.721Z,50.64
2019-02-18T10:21:07.500Z,47.84
2019-02-18T10:26:07.344Z,48.68
2019-02-18T10:31:06.959Z,49
2019-02-18T10:36:06.660Z,47.93
2019-02-18T10:41:07.970Z,47.13
2019-02-18T10:46:06.801Z,47.05
2019-02-18T10:51:07.512Z,45.52
2019-02-18T10:56:07.323Z,43.95
2019-02-18T11:00:08.781Z,46.23
2019-02-18T11:05:07.317Z,45.96
2019-02-18T11:10:07.433Z,46.53
2019-02-18T11:15:08.182Z,45.91
2019-02-18T11:20:07.049Z,47.06
2019-02-18T11:25:06.788Z,46.68
2019-02-18T11:30:10.008Z,45.79
2019-02-18T11:35:06.859Z,46.07
2019-02-18T11:39:07.044Z,46.5
2019-02-18T11:44:07.802Z,44.67
2019-02-18T11:49:07.182Z,43.3
2019-02-18T11:54:07.453Z,41.73
2019-02-18T11:59:07.068Z,42.02
2019-02-18T12:04:06.895Z,39.92
2019-02-18T12:09:07.670Z,39.73
2019-02-18T12:14:07.175Z,39.76
2019-02-18T12:19:07.916Z,40.07
2019-02-18T12:23:07.471Z,40.72
2019-02-18T12:28:07.546Z,40.41
2019-02-18T12:33:06.873Z,40.6
2019-02-18T12:38:07.113Z,40.34
2019-02-18T12:43:07.044Z,41.64
2019-02-18T12:48:08.950Z,40.66
2019-02-18T12:53:07.628Z,42.15
2019-02-18T12:58:07.767Z,42.39
2019-02-18T13:03:07.781Z,41.1
2019-02-18T13:07:06.779Z,41.63
2019-02-18T13:12:07.511Z,40.94
2019-02-18T13:17:06.924Z,39.64
2019-02-18T13:22:07.307Z,41.39
2019-02-18T13:27:06.790Z,40.6
2019-02-18T13:32:08.037Z,43.27
2019-02-18T13:37:07.603Z,42.87
2019-02-18T13:42:08.925Z,40.89
2019-02-18T13:46:07.334Z,41
2019-02-18T13:51:07.717Z,42.02
2019-02-18T13:56:07.352Z,42.62
2019-02-18T14:01:07.456Z,39.46
2019-02-18T14:06:06.977Z,38.52
2019-02-18T14:11:07.840Z,39.17
2019-02-18T14:16:07.441Z,39.31
2019-02-18T14:21:07.917Z,39.62
2019-02-18T14:25:07.674Z,40.42
2019-02-18T14:30:09.727Z,39.41
2019-02-18T14:31:07.427Z,39.41
2019-02-18T14:35:07.139Z,39.68
2019-02-18T14:40:07.716Z,38.77
2019-02-18T14:45:08.558Z,38.91
2019-02-18T14:50:08.177Z,39.83
2019-02-18T14:55:07.657Z,42.58
2019-02-18T15:00:09.713Z,44.5
2019-02-18T15:04:07.863Z,45.17
2019-02-18T15:09:07.970Z,45.65
2019-02-18T15:14:07.750Z,45.64
2019-02-18T15:19:08.091Z,44.95
2019-02-18T15:24:07.604Z,44.85
2019-02-18T15:29:07.764Z,46.14
2019-02-18T15:34:07.003Z,45.2
2019-02-18T15:39:07.699Z,46.01
2019-02-18T15:43:08.085Z,48.23
2019-02-18T15:48:08.516Z,49.36
2019-02-18T15:53:07.335Z,49.24
2019-02-18T15:58:07.028Z,48.94
2019-02-18T16:03:09.679Z,49.88
2019-02-18T16:08:07.755Z,51.11
2019-02-18T16:12:07.197Z,52.38
2019-02-18T16:17:07.264Z,53.3
2019-02-18T16:22:09.119Z,53.96
2019-02-18T16:27:07.254Z,55.42
2019-02-18T16:32:08.799Z,57.42
2019-02-18T16:37:07.628Z,59.82
2019-02-18T16:41:09.162Z,61.99
2019-02-18T16:46:09.289Z,63.87
2019-02-18T16:51:07.102Z,66.72
2019-02-18T16:56:07.306Z,67.59
2019-02-18T17:01:07.983Z,69.91
2019-02-18T17:06:06.797Z,69.65
2019-02-18T17:11:07.456Z,70.88
2019-02-18T17:15:08.198Z,71.28
2019-02-18T17:20:10.026Z,74.01
2019-02-18T17:21:07.177Z,74.01
2019-02-18T17:25:07.013Z,74.45
2019-02-18T17:30:09.884Z,75.4
2019-02-18T17:35:07.378Z,71.68
2019-02-18T17:40:08.010Z,72.73
2019-02-18T17:45:08.887Z,74.94
2019-02-18T17:49:07.432Z,77.26
2019-02-18T17:54:07.300Z,78.51
2019-02-18T17:59:07.725Z,82.24
2019-02-18T18:04:08.218Z,82.76
2019-02-18T18:09:07.253Z,77.42
2019-02-18T18:14:07.366Z,74.57
2019-02-18T18:19:10.148Z,76.64
2019-02-18T18:23:07.116Z,80.18
2019-02-18T18:28:07.261Z,78.77
2019-02-18T18:33:07.914Z,80.39
2019-02-18T18:38:08.297Z,83.05
2019-02-18T18:43:07.230Z,83.09
2019-02-18T18:48:07.188Z,84.19
2019-02-18T18:53:07.075Z,87.35
2019-02-18T18:57:07.456Z,87.22
2019-02-18T19:02:07.033Z,88.17
2019-02-18T19:07:07.248Z,88.23
2019-02-18T19:12:07.037Z,87.59
2019-02-18T19:17:07.965Z,89.97
2019-02-18T19:22:07.365Z,89.78
2019-02-18T19:27:07.597Z,89.14
2019-02-18T19:31:08.203Z,90.91
2019-02-18T19:36:07.926Z,91.94
2019-02-18T19:41:07.464Z,89.56
2019-02-18T19:46:07.484Z,88.48
2019-02-18T19:51:07.831Z,90.4
2019-02-18T19:56:07.788Z,89.55
2019-02-18T20:01:07.322Z,89.55
2019-02-18T20:05:07.408Z,90.63
2019-02-18T20:10:07.874Z,91.35
2019-02-18T20:15:08.947Z,91.64
2019-02-18T20:20:07.102Z,93.74
2019-02-18T20:25:07.743Z,87.3
2019-02-18T20:30:08.743Z,83.62
2019-02-18T20:35:08.425Z,81.09
2019-02-18T20:40:07.366Z,79.02
2019-02-18T20:44:08.424Z,77.68
2019-02-18T20:49:07.587Z,77.32
2019-02-18T20:54:07.043Z,76.26
2019-02-18T20:59:07.172Z,76.56
2019-02-18T21:04:07.370Z,76.84
2019-02-18T21:09:07.208Z,76.84
2019-02-18T21:14:14.333Z,76.55
2019-02-18T21:18:07.662Z,75.72
2019-02-18T21:23:07.598Z,75.42
2019-02-18T21:24:07.032Z,75.42
2019-02-18T21:28:08.983Z,74.85
2019-02-18T21:33:07.516Z,77.77
2019-02-18T21:38:07.786Z,80.99
2019-02-18T21:43:06.883Z,80.08
2019-02-18T21:48:09.441Z,78.12
2019-02-18T21:53:06.903Z,76.07
2019-02-18T21:58:07.153Z,76.1
2019-02-18T22:02:07.415Z,76.08
2019-02-18T22:07:07.519Z,78.62
2019-02-18T22:12:07.182Z,80.51
2019-02-18T22:17:07.227Z,82.46
2019-02-18T22:22:06.869Z,84.17
2019-02-18T22:27:07.994Z,84.92
2019-02-18T22:32:07.098Z,84.76
2019-02-18T22:36:06.904Z,85.55
2019-02-18T22:41:07.369Z,85.15
2019-02-18T22:46:07.610Z,87.65
2019-02-18T22:51:07.831Z,88.87
2019-02-18T22:56:07.258Z,85.11
2019-02-18T23:01:07.067Z,84.5
2019-02-18T23:06:07.262Z,84.89
2019-02-18T23:10:07.476Z,86.55
2019-02-18T23:15:09.468Z,87.58
2019-02-18T23:16:06.844Z,87.58
2019-02-18T23:20:07.326Z,88.01
2019-02-18T23:25:07.484Z,87.07
2019-02-18T23:30:08.854Z,87.6
2019-02-18T23:35:07.596Z,88.84
2019-02-18T23:40:07.469Z,87.78
2019-02-18T23:45:08.585Z,87.97
2019-02-18T23:49:07.934Z,88.35
2019-02-18T23:54:07.103Z,89.07
2019-02-18T23:59:07.629Z,88.19
